createdAt,value
2018-07-11T00:00:22.455Z,1013.91
2018-07-11T00:01:22.534Z,1013.90
2018-07-11T00:02:22.405Z,1013.95
2018-07-11T00:03:22.443Z,1013.91
2018-07-11T00:04:22.358Z,1013.90
2018-07-11T00:05:22.355Z,1013.92
2018-07-11T00:06:22.313Z,1013.91
2018-07-11T00:07:22.365Z,1013.90
2018-07-11T00:08:22.272Z,1013.92
2018-07-11T00:09:22.279Z,1013.91
2018-07-11T00:10:22.225Z,1013.88
2018-07-11T00:11:22.292Z,1013.87
2018-07-11T00:12:22.177Z,1013.88
2018-07-11T00:13:22.202Z,1013.86
2018-07-11T00:14:22.133Z,1013.91
2018-07-11T00:15:22.212Z,1013.88
2018-07-11T00:16:22.089Z,1013.86
2018-07-11T00:17:22.121Z,1013.89
2018-07-11T00:18:22.068Z,1013.88
2018-07-11T00:19:22.131Z,1013.88
2018-07-11T00:20:21.994Z,1013.85
2018-07-11T00:21:22.051Z,1013.85
2018-07-11T00:22:21.953Z,1013.83
2018-07-11T00:23:21.954Z,1013.82
2018-07-11T00:24:21.907Z,1013.83
2018-07-11T00:25:21.967Z,1013.84
2018-07-11T00:26:21.861Z,1013.83
2018-07-11T00:27:21.875Z,1013.84
2018-07-11T00:28:21.816Z,1013.84
2018-07-11T00:29:21.888Z,1013.82
2018-07-11T00:30:21.770Z,1013.83
2018-07-11T00:31:21.814Z,1013.85
2018-07-11T00:32:21.726Z,1013.82
2018-07-11T00:33:21.812Z,1013.82
2018-07-11T00:34:21.676Z,1013.86
2018-07-11T00:35:21.721Z,1013.82
2018-07-11T00:36:21.631Z,1013.84
2018-07-11T00:37:21.727Z,1013.85
2018-07-11T00:38:21.588Z,1013.84
2018-07-11T00:39:21.642Z,1013.85
2018-07-11T00:40:21.542Z,1013.86
2018-07-11T00:41:21.555Z,1013.81
2018-07-11T00:42:21.506Z,1013.86
2018-07-11T00:43:21.565Z,1013.85
2018-07-11T00:44:21.451Z,1013.90
2018-07-11T00:45:21.477Z,1013.89
2018-07-11T00:46:21.406Z,1013.89
2018-07-11T00:47:21.486Z,1013.88
2018-07-11T00:48:21.361Z,1013.89
2018-07-11T00:49:21.399Z,1013.90
2018-07-11T00:50:21.314Z,1013.88
2018-07-11T00:51:21.313Z,1013.87
2018-07-11T00:52:21.270Z,1013.88
2018-07-11T00:53:21.320Z,1013.86
2018-07-11T00:54:21.221Z,1013.87
2018-07-11T00:55:21.233Z,1013.87
2018-07-11T00:56:21.178Z,1013.87
2018-07-11T00:57:21.252Z,1013.88
2018-07-11T00:58:21.131Z,1013.90
2018-07-11T00:59:21.153Z,1013.88
2018-07-11T01:00:21.088Z,1013.87
2018-07-11T01:01:21.167Z,1013.85
2018-07-11T01:02:21.037Z,1013.85
2018-07-11T01:03:21.077Z,1013.89
2018-07-11T01:04:21.002Z,1013.88
2018-07-11T01:05:20.987Z,1013.91
2018-07-11T01:06:20.943Z,1013.94
2018-07-11T01:07:21.002Z,1013.90
2018-07-11T01:08:20.901Z,1013.88
2018-07-11T01:09:20.910Z,1013.90
2018-07-11T01:10:20.874Z,1013.87
2018-07-11T01:11:20.922Z,1013.90
2018-07-11T01:12:20.827Z,1013.87
2018-07-11T01:13:20.834Z,1013.87
2018-07-11T01:14:20.760Z,1013.86
2018-07-11T01:15:20.848Z,1013.87
2018-07-11T01:16:20.743Z,1013.85
2018-07-11T01:17:20.758Z,1013.86
2018-07-11T01:18:20.669Z,1013.90
2018-07-11T01:19:20.769Z,1013.85
2018-07-11T01:20:20.624Z,1013.85
2018-07-11T01:21:20.678Z,1013.92
2018-07-11T01:22:20.577Z,1013.93
2018-07-11T01:23:20.591Z,1013.92
2018-07-11T01:24:20.529Z,1013.93
2018-07-11T01:25:20.602Z,1013.94
2018-07-11T01:26:20.483Z,1013.92
2018-07-11T01:27:20.514Z,1013.93
2018-07-11T01:28:20.441Z,1013.96
2018-07-11T01:29:20.522Z,1013.95
2018-07-11T01:30:20.395Z,1013.96
2018-07-11T01:31:20.432Z,1013.98
2018-07-11T01:32:20.344Z,1013.96
2018-07-11T01:33:20.346Z,1013.98
2018-07-11T01:34:20.301Z,1013.98
2018-07-11T01:35:20.354Z,1013.98
2018-07-11T01:36:20.258Z,1013.94
2018-07-11T01:37:20.268Z,1013.96
2018-07-11T01:38:20.210Z,1013.96
2018-07-11T01:39:20.282Z,1013.98
2018-07-11T01:40:20.154Z,1013.99
2018-07-11T01:41:20.191Z,1013.99
2018-07-11T01:42:20.112Z,1013.99
2018-07-11T01:43:20.205Z,1013.98
2018-07-11T01:44:20.066Z,1014.00
2018-07-11T01:45:20.104Z,1013.99
2018-07-11T01:46:20.021Z,1014.00
2018-07-11T01:47:20.023Z,1013.97
2018-07-11T01:48:19.999Z,1013.94
2018-07-11T01:49:20.087Z,1013.95
2018-07-11T01:50:19.929Z,1013.96
2018-07-11T01:51:19.944Z,1013.96
2018-07-11T01:52:19.891Z,1013.91
2018-07-11T01:53:19.961Z,1013.93
2018-07-11T01:54:19.830Z,1013.93
2018-07-11T01:55:19.866Z,1013.94
2018-07-11T01:56:19.785Z,1013.98
2018-07-11T01:57:19.878Z,1013.92
2018-07-11T01:58:19.740Z,1013.92
2018-07-11T01:59:19.788Z,1013.91
2018-07-11T02:00:19.696Z,1013.90
2018-07-11T02:01:19.698Z,1013.93
2018-07-11T02:02:19.647Z,1013.90
2018-07-11T02:03:19.745Z,1013.90
2018-07-11T02:04:19.603Z,1013.95
2018-07-11T02:05:19.619Z,1013.93
2018-07-11T02:06:19.552Z,1013.95
2018-07-11T02:07:19.633Z,1013.95
2018-07-11T02:08:19.507Z,1013.95
2018-07-11T02:09:19.543Z,1013.96
2018-07-11T02:10:19.460Z,1013.96
2018-07-11T02:11:19.454Z,1013.91
2018-07-11T02:12:19.414Z,1013.97
2018-07-11T02:13:19.465Z,1013.96
2018-07-11T02:14:19.364Z,1013.95
2018-07-11T02:15:19.378Z,1013.95
2018-07-11T02:16:19.318Z,1013.96
2018-07-11T02:17:19.388Z,1013.97
2018-07-11T02:18:19.272Z,1014.01
2018-07-11T02:19:19.299Z,1014.01
2018-07-11T02:20:19.228Z,1013.99
2018-07-11T02:21:19.308Z,1014.01
2018-07-11T02:22:19.185Z,1014.03
2018-07-11T02:23:19.221Z,1014.02
2018-07-11T02:24:19.130Z,1014.03
2018-07-11T02:25:19.134Z,1014.09
2018-07-11T02:26:19.120Z,1014.04
2018-07-11T02:27:19.144Z,1014.03
2018-07-11T02:28:19.038Z,1014.07
2018-07-11T02:29:19.053Z,1014.03
2018-07-11T02:30:18.993Z,1014.06
2018-07-11T02:31:19.064Z,1014.03
2018-07-11T02:32:18.948Z,1014.04
2018-07-11T02:33:18.976Z,1014.05
2018-07-11T02:34:18.896Z,1014.05
2018-07-11T02:35:18.886Z,1014.09
2018-07-11T02:36:18.851Z,1014.12
2018-07-11T02:37:18.899Z,1014.04
2018-07-11T02:38:18.805Z,1014.07
2018-07-11T02:39:18.810Z,1014.07
2018-07-11T02:40:18.755Z,1014.06
2018-07-11T02:41:18.824Z,1014.06
2018-07-11T02:42:18.710Z,1014.06
2018-07-11T02:43:18.734Z,1014.08
2018-07-11T02:44:18.662Z,1014.09
2018-07-11T02:45:18.744Z,1014.09
2018-07-11T02:46:18.622Z,1014.09
2018-07-11T02:47:18.656Z,1014.12
2018-07-11T02:48:18.567Z,1014.11
2018-07-11T02:49:18.566Z,1014.11
2018-07-11T02:50:18.522Z,1014.08
2018-07-11T02:51:18.571Z,1014.09
2018-07-11T02:52:18.477Z,1014.13
2018-07-11T02:53:18.488Z,1014.07
2018-07-11T02:54:18.425Z,1014.11
2018-07-11T02:55:18.501Z,1014.12
2018-07-11T02:56:18.380Z,1014.06
2018-07-11T02:57:18.414Z,1014.06
2018-07-11T02:58:18.329Z,1014.07
2018-07-11T02:59:18.425Z,1014.08
2018-07-11T03:00:18.287Z,1014.08
2018-07-11T03:01:18.336Z,1014.07
2018-07-11T03:02:18.237Z,1014.10
2018-07-11T03:03:18.243Z,1014.04
2018-07-11T03:04:18.192Z,1014.06
2018-07-11T03:05:18.257Z,1014.02
2018-07-11T03:06:18.144Z,1014.06
2018-07-11T03:07:18.181Z,1014.02
2018-07-11T03:08:18.095Z,1014.02
2018-07-11T03:09:18.179Z,1014.02
2018-07-11T03:10:18.050Z,1014.03
2018-07-11T03:11:18.087Z,1014.03
2018-07-11T03:12:18.001Z,1014.04
2018-07-11T03:13:17.996Z,1014.04
2018-07-11T03:14:17.955Z,1014.08
2018-07-11T03:15:18.011Z,1014.06
2018-07-11T03:16:17.905Z,1014.05
2018-07-11T03:17:17.924Z,1014.03
2018-07-11T03:18:17.859Z,1014.03
2018-07-11T03:19:17.936Z,1014.05
2018-07-11T03:20:17.811Z,1014.04
2018-07-11T03:21:17.844Z,1014.06
2018-07-11T03:22:17.763Z,1014.06
2018-07-11T03:23:17.765Z,1014.07
2018-07-11T03:24:17.721Z,1014.07
2018-07-11T03:25:17.764Z,1014.05
2018-07-11T03:26:17.668Z,1014.04
2018-07-11T03:27:17.681Z,1014.08
2018-07-11T03:28:17.623Z,1014.09
2018-07-11T03:29:17.687Z,1014.09
2018-07-11T03:30:17.580Z,1014.11
2018-07-11T03:31:17.596Z,1014.04
2018-07-11T03:32:17.527Z,1014.04
2018-07-11T03:33:17.610Z,1014.03
2018-07-11T03:34:17.483Z,1014.08
2018-07-11T03:35:17.522Z,1014.09
2018-07-11T03:36:17.432Z,1014.09
2018-07-11T03:37:17.429Z,1014.08
2018-07-11T03:38:17.384Z,1014.06
2018-07-11T03:39:17.443Z,1014.04
2018-07-11T03:40:17.337Z,1014.05
2018-07-11T03:41:17.372Z,1014.04
2018-07-11T03:42:17.288Z,1014.00
2018-07-11T03:43:17.365Z,1014.01
2018-07-11T03:44:17.274Z,1014.01
2018-07-11T03:45:17.274Z,1014.03
2018-07-11T03:46:17.194Z,1014.03
2018-07-11T03:47:17.187Z,1014.03
2018-07-11T03:48:17.148Z,1014.03
2018-07-11T03:49:17.199Z,1014.05
2018-07-11T03:50:17.097Z,1014.09
2018-07-11T03:51:17.108Z,1014.12
2018-07-11T03:52:17.050Z,1014.15
2018-07-11T03:53:17.120Z,1014.14
2018-07-11T03:54:17.006Z,1014.14
2018-07-11T03:55:17.030Z,1014.14
2018-07-11T03:56:16.953Z,1014.18
2018-07-11T03:57:17.042Z,1014.20
2018-07-11T03:58:16.909Z,1014.23
2018-07-11T03:59:16.951Z,1014.19
2018-07-11T04:00:16.861Z,1014.20
2018-07-11T04:01:16.863Z,1014.22
2018-07-11T04:02:16.816Z,1014.23
2018-07-11T04:03:16.869Z,1014.23
2018-07-11T04:04:16.777Z,1014.18
2018-07-11T04:05:16.786Z,1014.21
2018-07-11T04:06:16.716Z,1014.25
2018-07-11T04:07:16.797Z,1014.21
2018-07-11T04:08:16.668Z,1014.26
2018-07-11T04:09:16.742Z,1014.22
2018-07-11T04:10:16.625Z,1014.21
2018-07-11T04:11:16.621Z,1014.20
2018-07-11T04:12:16.572Z,1014.15
2018-07-11T04:13:16.634Z,1014.16
2018-07-11T04:14:16.528Z,1014.20
2018-07-11T04:15:16.544Z,1014.20
2018-07-11T04:16:16.495Z,1014.20
2018-07-11T04:17:16.545Z,1014.25
2018-07-11T04:18:16.430Z,1014.19
2018-07-11T04:19:16.464Z,1014.23
2018-07-11T04:20:16.384Z,1014.30
2018-07-11T04:21:16.368Z,1014.31
2018-07-11T04:22:16.337Z,1014.34
2018-07-11T04:23:16.387Z,1014.36
2018-07-11T04:24:16.289Z,1014.36
2018-07-11T04:25:16.296Z,1014.40
2018-07-11T04:26:16.240Z,1014.39
2018-07-11T04:27:16.309Z,1014.40
2018-07-11T04:28:16.193Z,1014.40
2018-07-11T04:29:16.217Z,1014.38
2018-07-11T04:30:16.146Z,1014.44
2018-07-11T04:31:16.231Z,1014.42
2018-07-11T04:32:16.103Z,1014.42
2018-07-11T04:33:16.133Z,1014.41
2018-07-11T04:34:16.061Z,1014.41
2018-07-11T04:35:16.066Z,1014.41
2018-07-11T04:36:16.007Z,1014.39
2018-07-11T04:37:16.061Z,1014.40
2018-07-11T04:38:15.955Z,1014.42
2018-07-11T04:39:15.992Z,1014.44
2018-07-11T04:40:15.905Z,1014.39
2018-07-11T04:41:15.985Z,1014.40
2018-07-11T04:42:15.861Z,1014.37
2018-07-11T04:43:15.901Z,1014.38
2018-07-11T04:44:15.820Z,1014.35
2018-07-11T04:45:15.805Z,1014.40
2018-07-11T04:46:15.767Z,1014.36
2018-07-11T04:47:15.815Z,1014.40
2018-07-11T04:48:15.722Z,1014.39
2018-07-11T04:49:15.764Z,1014.40
2018-07-11T04:50:15.672Z,1014.41
2018-07-11T04:51:15.744Z,1014.42
2018-07-11T04:52:15.624Z,1014.41
2018-07-11T04:53:15.652Z,1014.39
2018-07-11T04:54:15.573Z,1014.38
2018-07-11T04:55:15.664Z,1014.37
2018-07-11T04:56:15.533Z,1014.39
2018-07-11T04:57:15.576Z,1014.43
2018-07-11T04:58:15.479Z,1014.41
2018-07-11T04:59:15.484Z,1014.43
2018-07-11T05:00:15.430Z,1014.44
2018-07-11T05:01:15.496Z,1014.42
2018-07-11T05:02:15.386Z,1014.41
2018-07-11T05:03:15.406Z,1014.43
2018-07-11T05:04:15.343Z,1014.46
2018-07-11T05:05:15.418Z,1014.46
2018-07-11T05:06:15.296Z,1014.52
2018-07-11T05:07:15.329Z,1014.50
2018-07-11T05:08:15.244Z,1014.48
2018-07-11T05:09:15.241Z,1014.48
2018-07-11T05:10:15.195Z,1014.47
2018-07-11T05:11:15.267Z,1014.51
2018-07-11T05:12:15.160Z,1014.51
2018-07-11T05:13:15.161Z,1014.50
2018-07-11T05:14:15.106Z,1014.53
2018-07-11T05:15:15.174Z,1014.49
2018-07-11T05:16:15.070Z,1014.49
2018-07-11T05:17:15.084Z,1014.48
2018-07-11T05:18:15.009Z,1014.48
2018-07-11T05:19:15.097Z,1014.50
2018-07-11T05:20:14.959Z,1014.52
2018-07-11T05:21:15.017Z,1014.47
2018-07-11T05:22:14.931Z,1014.47
2018-07-11T05:23:14.918Z,1014.52
2018-07-11T05:24:14.867Z,1014.48
2018-07-11T05:25:14.932Z,1014.47
2018-07-11T05:26:14.875Z,1014.50
2018-07-11T05:27:14.845Z,1014.54
2018-07-11T05:28:14.831Z,1014.53
2018-07-11T05:29:14.856Z,1014.52
2018-07-11T05:30:14.727Z,1014.56
2018-07-11T05:31:14.762Z,1014.52
2018-07-11T05:32:14.680Z,1014.51
2018-07-11T05:33:14.673Z,1014.52
2018-07-11T05:34:14.633Z,1014.54
2018-07-11T05:35:14.685Z,1014.52
2018-07-11T05:36:14.623Z,1014.59
2018-07-11T05:37:14.596Z,1014.53
2018-07-11T05:38:14.540Z,1014.56
2018-07-11T05:39:14.613Z,1014.57
2018-07-11T05:40:14.493Z,1014.59
2018-07-11T05:41:14.521Z,1014.54
2018-07-11T05:42:14.452Z,1014.58
2018-07-11T05:43:14.535Z,1014.58
2018-07-11T05:44:14.401Z,1014.57
2018-07-11T05:45:15.474Z,1014.55
2018-07-11T05:46:14.354Z,1014.54
2018-07-11T05:47:14.368Z,1014.53
2018-07-11T05:48:14.357Z,1014.56
2018-07-11T05:49:14.366Z,1014.57
2018-07-11T05:50:14.265Z,1014.58
2018-07-11T05:51:14.276Z,1014.61
2018-07-11T05:52:14.223Z,1014.61
2018-07-11T05:53:14.296Z,1014.66
2018-07-11T05:54:14.175Z,1014.61
2018-07-11T05:55:14.194Z,1014.66
2018-07-11T05:56:14.121Z,1014.68
2018-07-11T05:57:14.207Z,1014.66
2018-07-11T05:58:14.079Z,1014.70
2018-07-11T05:59:14.117Z,1014.68
2018-07-11T06:00:14.034Z,1014.67
2018-07-11T06:01:14.027Z,1014.65
2018-07-11T06:02:13.985Z,1014.65
2018-07-11T06:03:14.049Z,1014.63
2018-07-11T06:04:13.939Z,1014.70
2018-07-11T06:05:13.949Z,1014.69
2018-07-11T06:06:13.897Z,1014.67
2018-07-11T06:07:13.964Z,1014.65
2018-07-11T06:08:13.847Z,1014.65
2018-07-11T06:09:13.873Z,1014.65
2018-07-11T06:10:13.805Z,1014.64
2018-07-11T06:11:13.885Z,1014.63
2018-07-11T06:12:13.759Z,1014.64
2018-07-11T06:13:13.798Z,1014.65
2018-07-11T06:14:13.708Z,1014.61
2018-07-11T06:15:13.707Z,1014.60
2018-07-11T06:16:13.695Z,1014.62
2018-07-11T06:17:13.725Z,1014.60
2018-07-11T06:18:13.620Z,1014.61
2018-07-11T06:19:13.634Z,1014.67
2018-07-11T06:20:13.622Z,1014.70
2018-07-11T06:21:13.642Z,1014.70
2018-07-11T06:22:13.530Z,1014.68
2018-07-11T06:23:13.551Z,1014.66
2018-07-11T06:24:13.483Z,1014.69
2018-07-11T06:25:13.564Z,1014.70
2018-07-11T06:26:13.439Z,1014.69
2018-07-11T06:27:13.509Z,1014.75
2018-07-11T06:28:13.392Z,1014.74
2018-07-11T06:29:13.382Z,1014.80
2018-07-11T06:30:13.348Z,1014.82
2018-07-11T06:31:13.396Z,1014.84
2018-07-11T06:32:13.302Z,1014.85
2018-07-11T06:33:13.320Z,1014.84
2018-07-11T06:34:13.260Z,1014.84
2018-07-11T06:35:13.316Z,1014.88
2018-07-11T06:36:13.281Z,1014.91
2018-07-11T06:37:13.231Z,1014.90
2018-07-11T06:38:13.237Z,1014.94
2018-07-11T06:39:13.155Z,1014.93
2018-07-11T06:40:13.147Z,1014.97
2018-07-11T06:41:13.106Z,1014.99
2018-07-11T06:42:13.158Z,1015.01
2018-07-11T06:43:13.166Z,1015.03
2018-07-11T06:44:19.342Z,1015.07
2018-07-11T06:45:13.075Z,1015.05
2018-07-11T06:46:13.197Z,1015.07
2018-07-11T06:47:13.987Z,1015.10
2018-07-11T06:48:15.045Z,1015.11
2018-07-11T06:49:12.994Z,1015.13
2018-07-11T06:50:13.001Z,1015.12
2018-07-11T06:51:12.880Z,1015.12
2018-07-11T06:52:12.987Z,1015.08
2018-07-11T06:53:12.835Z,1015.09
2018-07-11T06:54:12.926Z,1015.07
2018-07-11T06:55:12.827Z,1015.11
2018-07-11T06:56:12.767Z,1015.15
2018-07-11T06:57:12.905Z,1015.19
2018-07-11T06:58:12.723Z,1015.16
2018-07-11T06:59:12.820Z,1015.15
2018-07-11T07:00:12.684Z,1015.15
2018-07-11T07:01:12.830Z,1015.18
2018-07-11T07:02:12.626Z,1015.14
2018-07-11T07:03:12.675Z,1015.20
2018-07-11T07:04:12.592Z,1015.12
2018-07-11T07:05:12.677Z,1015.18
2018-07-11T07:06:12.549Z,1015.14
2018-07-11T07:07:12.596Z,1015.16
2018-07-11T07:08:12.507Z,1015.18
2018-07-11T07:09:12.505Z,1015.20
2018-07-11T07:10:12.461Z,1015.18
2018-07-11T07:11:12.595Z,1015.20
2018-07-11T07:12:12.414Z,1015.19
2018-07-11T07:13:12.509Z,1015.18
2018-07-11T07:14:12.407Z,1015.17
2018-07-11T07:15:12.549Z,1015.18
2018-07-11T07:16:12.329Z,1015.20
2018-07-11T07:17:12.351Z,1015.21
2018-07-11T07:18:12.290Z,1015.18
2018-07-11T07:19:12.446Z,1015.18
2018-07-11T07:20:12.247Z,1015.19
2018-07-11T07:21:12.359Z,1015.18
2018-07-11T07:22:12.199Z,1015.15
2018-07-11T07:23:12.372Z,1015.17
2018-07-11T07:24:12.158Z,1015.08
2018-07-11T07:25:12.284Z,1015.08
2018-07-11T07:26:12.122Z,1015.07
2018-07-11T07:27:12.195Z,1015.08
2018-07-11T07:28:12.072Z,1015.12
2018-07-11T07:29:12.192Z,1015.10
2018-07-11T07:30:12.025Z,1015.11
2018-07-11T07:31:12.019Z,1015.05
2018-07-11T07:32:11.992Z,1015.07
2018-07-11T07:33:12.035Z,1015.04
2018-07-11T07:34:11.973Z,1015.02
2018-07-11T07:35:12.059Z,1015.01
2018-07-11T07:36:11.909Z,1015.03
2018-07-11T07:37:12.064Z,1015.00
2018-07-11T07:38:11.857Z,1014.96
2018-07-11T07:39:11.976Z,1015.00
2018-07-11T07:40:11.818Z,1015.01
2018-07-11T07:41:11.885Z,1014.99
2018-07-11T07:42:11.784Z,1015.02
2018-07-11T07:43:11.798Z,1015.03
2018-07-11T07:44:11.736Z,1015.04
2018-07-11T07:45:11.816Z,1015.04
2018-07-11T07:46:11.686Z,1014.97
2018-07-11T07:47:11.887Z,1014.97
2018-07-11T07:48:11.646Z,1014.99
2018-07-11T07:49:11.844Z,1014.95
2018-07-11T07:50:11.602Z,1014.94
2018-07-11T07:51:11.650Z,1014.96
2018-07-11T07:52:11.586Z,1014.93
2018-07-11T07:53:11.561Z,1014.97
2018-07-11T07:54:11.515Z,1014.93
2018-07-11T07:55:11.575Z,1014.96
2018-07-11T07:56:11.473Z,1014.95
2018-07-11T07:57:11.488Z,1014.93
2018-07-11T07:58:11.433Z,1014.88
2018-07-11T07:59:11.502Z,1014.91
2018-07-11T08:00:11.390Z,1014.92
2018-07-11T08:01:11.414Z,1014.85
2018-07-11T08:02:11.349Z,1014.84
2018-07-11T08:03:11.433Z,1014.87
2018-07-11T08:04:11.311Z,1014.86
2018-07-11T08:05:11.357Z,1014.84
2018-07-11T08:06:11.264Z,1014.78
2018-07-11T08:07:11.357Z,1014.81
2018-07-11T08:08:11.226Z,1014.82
2018-07-11T08:09:11.271Z,1014.78
2018-07-11T08:10:11.185Z,1014.79
2018-07-11T08:11:11.283Z,1014.81
2018-07-11T08:12:11.175Z,1014.81
2018-07-11T08:13:11.190Z,1014.80
2018-07-11T08:14:11.109Z,1014.80
2018-07-11T08:15:11.116Z,1014.85
2018-07-11T08:16:11.069Z,1014.85
2018-07-11T08:17:11.114Z,1014.85
2018-07-11T08:18:11.014Z,1014.88
2018-07-11T08:19:11.031Z,1014.88
2018-07-11T08:20:10.978Z,1014.84
2018-07-11T08:21:11.049Z,1014.81
2018-07-11T08:22:10.945Z,1014.79
2018-07-11T08:23:10.913Z,1014.80
2018-07-11T08:24:10.975Z,1014.84
2018-07-11T08:25:10.875Z,1014.82
2018-07-11T08:26:10.879Z,1014.87
2018-07-11T08:27:10.888Z,1014.77
2018-07-11T08:28:10.905Z,1014.78
2018-07-11T08:29:10.798Z,1014.75
2018-07-11T08:30:10.811Z,1014.74
2018-07-11T08:31:10.751Z,1014.74
2018-07-11T08:32:10.816Z,1014.72
2018-07-11T08:33:10.709Z,1014.73
2018-07-11T08:34:10.736Z,1014.75
2018-07-11T08:35:10.761Z,1014.81
2018-07-11T08:36:10.742Z,1014.76
2018-07-11T08:37:10.678Z,1014.75
2018-07-11T08:38:10.658Z,1014.76
2018-07-11T08:39:10.589Z,1014.77
2018-07-11T08:40:10.671Z,1014.76
2018-07-11T08:41:10.550Z,1014.77
2018-07-11T08:42:10.633Z,1014.75
2018-07-11T08:43:10.510Z,1014.76
2018-07-11T08:44:10.592Z,1014.78
2018-07-11T08:45:10.470Z,1014.75
2018-07-11T08:46:10.505Z,1014.75
2018-07-11T08:47:10.431Z,1014.79
2018-07-11T08:48:10.660Z,1014.74
2018-07-11T08:49:10.391Z,1014.81
2018-07-11T08:50:10.434Z,1014.82
2018-07-11T08:51:10.353Z,1014.82
2018-07-11T08:52:10.446Z,1014.78
2018-07-11T08:53:10.313Z,1014.83
2018-07-11T08:54:10.357Z,1014.79
2018-07-11T08:55:10.311Z,1014.76
2018-07-11T08:56:10.268Z,1014.77
2018-07-11T08:57:10.237Z,1014.78
2018-07-11T08:58:10.281Z,1014.77
2018-07-11T08:59:10.194Z,1014.83
2018-07-11T09:00:10.193Z,1014.82
2018-07-11T09:01:10.158Z,1014.77
2018-07-11T09:02:10.206Z,1014.81
2018-07-11T09:03:10.119Z,1014.76
2018-07-11T09:04:10.119Z,1014.74
2018-07-11T09:05:10.082Z,1014.78
2018-07-11T09:06:10.133Z,1014.83
2018-07-11T09:07:10.043Z,1014.87
2018-07-11T09:08:10.045Z,1014.80
2018-07-11T09:09:10.005Z,1014.85
2018-07-11T09:10:10.057Z,1014.82
2018-07-11T09:11:09.968Z,1014.85
2018-07-11T09:12:09.969Z,1014.83
2018-07-11T09:13:09.933Z,1014.84
2018-07-11T09:14:09.984Z,1014.84
2018-07-11T09:15:09.896Z,1014.87
2018-07-11T09:16:09.895Z,1014.83
2018-07-11T09:17:09.856Z,1014.84
2018-07-11T09:18:09.908Z,1014.88
2018-07-11T09:19:09.822Z,1014.89
2018-07-11T09:20:09.822Z,1014.87
2018-07-11T09:21:09.784Z,1014.88
2018-07-11T09:22:09.836Z,1014.86
2018-07-11T09:23:09.740Z,1014.84
2018-07-11T09:24:09.765Z,1014.86
2018-07-11T09:25:09.723Z,1014.81
2018-07-11T09:26:09.760Z,1014.83
2018-07-11T09:27:09.673Z,1014.89
2018-07-11T09:28:09.681Z,1014.91
2018-07-11T09:29:09.641Z,1014.87
2018-07-11T09:30:09.690Z,1014.84
2018-07-11T09:31:09.600Z,1014.81
2018-07-11T09:32:09.603Z,1014.81
2018-07-11T09:33:09.566Z,1014.77
2018-07-11T09:34:09.613Z,1014.76
2018-07-11T09:35:09.527Z,1014.86
2018-07-11T09:36:09.527Z,1014.84
2018-07-11T09:37:09.492Z,1014.89
2018-07-11T09:38:09.541Z,1014.85
2018-07-11T09:39:09.453Z,1014.85
2018-07-11T09:40:09.453Z,1014.88
2018-07-11T09:41:09.422Z,1014.82
2018-07-11T09:42:09.459Z,1014.75
2018-07-11T09:43:09.386Z,1014.75
2018-07-11T09:44:09.480Z,1014.79
2018-07-11T09:45:09.383Z,1014.78
2018-07-11T09:46:09.394Z,1014.78
2018-07-11T09:47:09.315Z,1014.75
2018-07-11T09:48:09.405Z,1014.75
2018-07-11T09:49:09.283Z,1014.75
2018-07-11T09:50:09.323Z,1014.77
2018-07-11T09:51:09.247Z,1014.73
2018-07-11T09:52:09.363Z,1014.75
2018-07-11T09:53:09.214Z,1014.74
2018-07-11T09:54:09.251Z,1014.70
2018-07-11T09:55:09.180Z,1014.67
2018-07-11T09:56:09.259Z,1014.63
2018-07-11T09:57:09.146Z,1014.69
2018-07-11T09:58:09.172Z,1014.70
2018-07-11T09:59:09.113Z,1014.72
2018-07-11T10:00:09.185Z,1014.68
2018-07-11T10:01:09.079Z,1014.79
2018-07-11T10:02:09.098Z,1014.68
2018-07-11T10:03:09.045Z,1014.80
2018-07-11T10:04:09.110Z,1014.76
2018-07-11T10:05:09.034Z,1014.77
2018-07-11T10:06:09.022Z,1014.72
2018-07-11T10:07:08.984Z,1014.71
2018-07-11T10:08:09.036Z,1014.63
2018-07-11T10:09:08.942Z,1014.65
2018-07-11T10:10:08.948Z,1014.60
2018-07-11T10:11:08.913Z,1014.62
2018-07-11T10:12:08.963Z,1014.73
2018-07-11T10:13:08.883Z,1014.76
2018-07-11T10:14:08.976Z,1014.74
2018-07-11T10:15:08.848Z,1014.81
2018-07-11T10:16:08.889Z,1014.73
2018-07-11T10:17:08.818Z,1014.68
2018-07-11T10:18:08.902Z,1014.64
2018-07-11T10:19:08.784Z,1014.62
2018-07-11T10:20:08.815Z,1014.65
2018-07-11T10:21:08.752Z,1014.65
2018-07-11T10:22:08.825Z,1014.66
2018-07-11T10:23:08.720Z,1014.63
2018-07-11T10:24:08.741Z,1014.60
2018-07-11T10:25:08.690Z,1014.62
2018-07-11T10:26:08.783Z,1014.60
2018-07-11T10:27:08.654Z,1014.57
2018-07-11T10:28:08.666Z,1014.57
2018-07-11T10:29:08.622Z,1014.55
2018-07-11T10:30:08.680Z,1014.56
2018-07-11T10:31:08.589Z,1014.54
2018-07-11T10:32:08.592Z,1014.55
2018-07-11T10:33:08.559Z,1014.52
2018-07-11T10:34:08.619Z,1014.56
2018-07-11T10:35:08.527Z,1014.61
2018-07-11T10:36:08.621Z,1014.58
2018-07-11T10:37:08.500Z,1014.57
2018-07-11T10:38:08.533Z,1014.53
2018-07-11T10:39:08.517Z,1014.58
2018-07-11T10:40:08.547Z,1014.59
2018-07-11T10:41:08.437Z,1014.50
2018-07-11T10:42:08.457Z,1014.51
2018-07-11T10:43:08.403Z,1014.49
2018-07-11T10:44:08.479Z,1014.55
2018-07-11T10:45:08.374Z,1014.52
2018-07-11T10:46:08.384Z,1014.49
2018-07-11T10:47:08.342Z,1014.50
2018-07-11T10:48:08.401Z,1014.47
2018-07-11T10:49:08.312Z,1014.42
2018-07-11T10:50:08.311Z,1014.43
2018-07-11T10:51:08.291Z,1014.52
2018-07-11T10:52:08.326Z,1014.45
2018-07-11T10:53:08.253Z,1014.42
2018-07-11T10:54:08.338Z,1014.42
2018-07-11T10:55:08.225Z,1014.44
2018-07-11T10:56:08.252Z,1014.45
2018-07-11T10:57:08.205Z,1014.40
2018-07-11T10:58:08.267Z,1014.34
2018-07-11T10:59:08.161Z,1014.35
2018-07-11T11:00:08.180Z,1014.30
2018-07-11T11:01:08.184Z,1014.34
2018-07-11T11:02:08.191Z,1014.38
2018-07-11T11:03:08.115Z,1014.34
2018-07-11T11:04:08.102Z,1014.31
2018-07-11T11:05:08.077Z,1014.34
2018-07-11T11:06:08.117Z,1014.23
2018-07-11T11:07:08.046Z,1014.32
2018-07-11T11:08:08.212Z,1014.22
2018-07-11T11:09:08.043Z,1014.27
2018-07-11T11:10:08.044Z,1014.23
2018-07-11T11:11:08.000Z,1014.22
2018-07-11T11:12:08.136Z,1014.21
2018-07-11T11:13:07.956Z,1014.27
2018-07-11T11:14:07.967Z,1014.26
2018-07-11T11:15:07.928Z,1014.29
2018-07-11T11:16:07.984Z,1014.32
2018-07-11T11:17:07.897Z,1014.28
2018-07-11T11:18:07.997Z,1014.26
2018-07-11T11:19:07.870Z,1014.26
2018-07-11T11:20:07.908Z,1014.22
2018-07-11T11:21:07.841Z,1014.24
2018-07-11T11:22:07.920Z,1014.24
2018-07-11T11:23:07.812Z,1014.19
2018-07-11T11:24:07.836Z,1014.18
2018-07-11T11:25:07.784Z,1014.22
2018-07-11T11:26:07.849Z,1014.24
2018-07-11T11:27:07.754Z,1014.17
2018-07-11T11:28:07.761Z,1014.20
2018-07-11T11:29:07.724Z,1014.15
2018-07-11T11:30:07.776Z,1014.24
2018-07-11T11:31:07.700Z,1014.23
2018-07-11T11:32:07.802Z,1014.24
2018-07-11T11:33:07.668Z,1014.19
2018-07-11T11:34:07.701Z,1014.26
2018-07-11T11:35:07.640Z,1014.26
2018-07-11T11:36:07.716Z,1014.26
2018-07-11T11:37:07.608Z,1014.27
2018-07-11T11:38:07.665Z,1014.30
2018-07-11T11:39:07.583Z,1014.31
2018-07-11T11:40:07.643Z,1014.30
2018-07-11T11:41:07.548Z,1014.31
2018-07-11T11:42:07.749Z,1014.24
2018-07-11T11:43:07.526Z,1014.26
2018-07-11T11:44:07.576Z,1014.27
2018-07-11T11:45:07.490Z,1014.29
2018-07-11T11:46:07.586Z,1014.31
2018-07-11T11:47:07.459Z,1014.33
2018-07-11T11:48:07.494Z,1014.31
2018-07-11T11:49:07.429Z,1014.32
2018-07-11T11:50:07.509Z,1014.37
2018-07-11T11:51:07.400Z,1014.37
2018-07-11T11:52:07.419Z,1014.36
2018-07-11T11:53:07.373Z,1014.34
2018-07-11T11:54:07.436Z,1014.28
2018-07-11T11:55:07.333Z,1014.32
2018-07-11T11:56:07.343Z,1014.25
2018-07-11T11:57:07.394Z,1014.29
2018-07-11T11:58:07.297Z,1014.31
2018-07-11T11:59:07.283Z,1014.38
2018-07-11T12:00:07.363Z,1014.36
2018-07-11T12:01:07.343Z,1014.41
2018-07-11T12:02:07.376Z,1014.35
2018-07-11T12:03:07.310Z,1014.40
2018-07-11T12:04:07.391Z,1014.37
2018-07-11T12:05:07.286Z,1014.45